createdAt,value
2023-05-23T00:00:52.194Z,6.68
2023-05-23T00:03:22.863Z,6.60
2023-05-23T00:05:50.426Z,6.82
2023-05-23T00:08:17.732Z,7.30
2023-05-23T00:10:45.660Z,6.13
2023-05-23T00:13:15.252Z,7.25
2023-05-23T00:15:42.621Z,7.93
2023-05-23T00:18:12.577Z,6.93
2023-05-23T00:20:43.716Z,6.83
2023-05-23T00:23:11.361Z,6.60
2023-05-23T00:25:38.438Z,8.27
2023-05-23T00:28:05.734Z,7.30
2023-05-23T00:30:34.116Z,6.38
2023-05-23T00:33:01.416Z,7.43
2023-05-23T00:35:28.083Z,7.10
2023-05-23T00:37:57.868Z,7.28
2023-05-23T00:40:26.919Z,7.07
2023-05-23T00:42:53.822Z,7.00
2023-05-23T00:45:20.717Z,7.03
2023-05-23T00:47:48.380Z,7.35
2023-05-23T00:50:16.168Z,7.22
2023-05-23T00:52:44.501Z,6.85
2023-05-23T00:55:12.430Z,7.25
2023-05-23T00:57:44.540Z,7.63
2023-05-23T01:00:15.436Z,6.80
2023-05-23T01:02:45.414Z,8.90
2023-05-23T01:05:17.662Z,7.15
2023-05-23T01:07:45.280Z,7.45
2023-05-23T01:10:12.997Z,7.27
2023-05-23T01:12:45.278Z,8.55
2023-05-23T01:15:23.791Z,8.95
2023-05-23T01:18:04.413Z,7.93
2023-05-23T01:20:57.255Z,6.13
2023-05-23T01:23:37.444Z,6.73
2023-05-23T01:26:26.297Z,6.95
2023-05-23T01:28:56.391Z,7.32
2023-05-23T01:31:24.897Z,8.05
2023-05-23T01:33:53.485Z,7.45
2023-05-23T01:36:22.602Z,8.27
2023-05-23T01:38:51.470Z,7.78
2023-05-23T01:41:18.077Z,8.00
2023-05-23T01:43:44.979Z,7.78
2023-05-23T01:46:12.115Z,7.40
2023-05-23T01:48:39.806Z,7.83
2023-05-23T01:51:07.141Z,7.50
2023-05-23T01:53:37.831Z,8.25
2023-05-23T01:56:05.080Z,6.40
2023-05-23T01:58:31.819Z,9.30
2023-05-23T02:00:58.882Z,7.60
2023-05-23T02:03:25.899Z,7.85
2023-05-23T02:05:52.660Z,8.30
2023-05-23T02:08:19.307Z,7.38
2023-05-23T02:10:45.945Z,7.18
2023-05-23T02:13:15.050Z,9.37
2023-05-23T02:15:41.837Z,8.73
2023-05-23T02:18:08.976Z,9.05
2023-05-23T02:20:35.745Z,9.25
2023-05-23T02:23:02.451Z,7.60
2023-05-23T02:25:29.148Z,8.10
2023-05-23T02:27:55.862Z,7.70
2023-05-23T02:30:22.514Z,7.20
2023-05-23T02:32:49.409Z,9.20
2023-05-23T02:35:16.064Z,8.23
2023-05-23T02:37:42.778Z,8.70
2023-05-23T02:40:10.348Z,9.60
2023-05-23T02:42:36.958Z,7.50
2023-05-23T02:45:03.873Z,7.10
2023-05-23T02:47:30.690Z,7.60
2023-05-23T02:49:57.345Z,8.67
2023-05-23T02:52:28.272Z,8.80
2023-05-23T02:54:54.985Z,8.05
2023-05-23T02:57:21.616Z,7.40
2023-05-23T02:59:50.921Z,7.80
2023-05-23T03:02:17.731Z,9.90
2023-05-23T03:04:44.495Z,8.77
2023-05-23T03:07:20.635Z,9.13
2023-05-23T03:09:54.557Z,8.15
2023-05-23T03:12:21.240Z,8.23
2023-05-23T03:14:47.865Z,7.73
2023-05-23T03:17:16.704Z,9.18
2023-05-23T03:19:43.384Z,7.80
2023-05-23T03:22:10.045Z,9.30
2023-05-23T03:24:36.714Z,8.30
2023-05-23T03:27:04.289Z,8.23
2023-05-23T03:29:33.421Z,8.15
2023-05-23T03:32:00.231Z,8.85
2023-05-23T03:34:27.379Z,7.97
2023-05-23T03:36:54.117Z,8.13
2023-05-23T03:39:20.956Z,8.53
2023-05-23T03:41:47.638Z,8.13
2023-05-23T03:44:14.861Z,7.40
2023-05-23T03:46:41.737Z,8.40
2023-05-23T03:49:08.669Z,7.63
2023-05-23T03:51:35.393Z,7.60
2023-05-23T03:54:02.091Z,8.65
2023-05-23T03:56:28.728Z,8.10
2023-05-23T03:58:55.480Z,8.45
2023-05-23T04:01:22.214Z,7.88
2023-05-23T04:03:49.662Z,7.47
2023-05-23T04:06:17.305Z,8.25
2023-05-23T04:08:44.045Z,8.25
2023-05-23T04:11:13.020Z,7.85
2023-05-23T04:13:39.679Z,6.80
2023-05-23T04:16:06.852Z,8.10
2023-05-23T04:18:33.651Z,7.43
2023-05-23T04:21:00.606Z,6.80
2023-05-23T04:23:27.576Z,7.50
2023-05-23T04:25:54.226Z,7.85
2023-05-23T04:28:20.930Z,7.10
2023-05-23T04:30:49.561Z,7.25
2023-05-23T04:33:17.468Z,7.53
2023-05-23T04:35:44.088Z,7.30
2023-05-23T04:38:10.856Z,6.50
2023-05-23T04:40:37.451Z,7.80
2023-05-23T04:43:04.068Z,9.77
2023-05-23T04:45:30.781Z,7.57
2023-05-23T04:47:59.683Z,7.78
2023-05-23T04:50:26.509Z,8.75
2023-05-23T04:52:53.097Z,6.87
2023-05-23T04:55:20.204Z,7.60
2023-05-23T04:57:47.142Z,7.63
2023-05-23T05:00:14.933Z,6.82
2023-05-23T05:02:44.009Z,8.63
2023-05-23T05:05:11.101Z,7.20
2023-05-23T05:07:38.019Z,8.43
2023-05-23T05:10:05.061Z,6.85
2023-05-23T05:12:31.709Z,7.32
2023-05-23T05:14:58.408Z,6.60
2023-05-23T05:17:25.066Z,6.77
2023-05-23T05:19:51.770Z,6.60
2023-05-23T05:22:18.484Z,6.78
2023-05-23T05:24:45.109Z,8.52
2023-05-23T05:27:14.147Z,8.27
2023-05-23T05:29:40.773Z,7.47
2023-05-23T05:32:09.794Z,6.82
2023-05-23T05:34:38.092Z,7.22
2023-05-23T05:37:07.248Z,7.80
2023-05-23T05:39:34.236Z,6.80
2023-05-23T05:42:03.977Z,6.73
2023-05-23T05:44:30.579Z,6.80
2023-05-23T05:46:57.255Z,7.22
2023-05-23T05:49:23.906Z,6.43
2023-05-23T05:51:50.551Z,6.93
2023-05-23T05:54:19.231Z,6.40
2023-05-23T05:56:47.480Z,6.93
2023-05-23T05:59:14.240Z,6.32
2023-05-23T06:01:40.990Z,7.68
2023-05-23T06:04:08.006Z,6.57
2023-05-23T06:06:34.780Z,6.33
2023-05-23T06:09:01.423Z,7.05
2023-05-23T06:11:28.073Z,7.15
2023-05-23T06:13:54.796Z,13.00
2023-05-23T06:16:21.468Z,7.80
2023-05-23T06:18:48.147Z,12.70
2023-05-23T06:21:14.786Z,12.65
2023-05-23T06:23:41.556Z,11.23
2023-05-23T06:26:10.855Z,13.38
2023-05-23T06:28:39.902Z,12.23
2023-05-23T06:31:06.749Z,10.13
2023-05-23T06:33:33.474Z,9.50
2023-05-23T06:36:00.152Z,7.80
2023-05-23T06:38:33.630Z,10.85
2023-05-23T06:41:00.638Z,10.48
2023-05-23T06:43:27.281Z,11.43
2023-05-23T06:45:54.378Z,10.57
2023-05-23T06:48:21.183Z,14.23
2023-05-23T06:50:47.875Z,13.32
2023-05-23T06:53:16.641Z,9.50
2023-05-23T06:55:44.948Z,8.37
2023-05-23T06:58:11.597Z,10.63
2023-05-23T07:00:38.440Z,8.55
2023-05-23T07:03:07.236Z,12.73
2023-05-23T07:05:34.556Z,9.57
2023-05-23T07:08:01.274Z,10.00
2023-05-23T07:10:28.026Z,13.65
2023-05-23T07:12:54.758Z,7.80
2023-05-23T07:15:21.434Z,9.00
2023-05-23T07:17:48.447Z,9.27
2023-05-23T07:20:17.396Z,10.43
2023-05-23T07:22:45.370Z,7.95
2023-05-23T07:25:14.298Z,9.13
2023-05-23T07:27:40.951Z,9.38
2023-05-23T07:30:09.833Z,9.43
2023-05-23T07:32:36.887Z,8.43
2023-05-23T07:35:03.787Z,10.70
2023-05-23T07:37:30.461Z,8.95
2023-05-23T07:39:57.116Z,11.02
2023-05-23T07:42:25.892Z,16.95
2023-05-23T07:44:52.576Z,16.00
2023-05-23T07:47:19.299Z,12.27
2023-05-23T07:49:47.615Z,10.73
2023-05-23T07:52:14.288Z,11.25
2023-05-23T07:54:40.909Z,10.57
2023-05-23T07:57:07.549Z,8.23
2023-05-23T07:59:34.201Z,9.80
2023-05-23T08:02:00.976Z,9.82
2023-05-23T08:04:28.205Z,11.13
2023-05-23T08:09:25.202Z,12.47
2023-05-23T08:11:54.561Z,13.25
2023-05-23T08:14:21.865Z,11.32
2023-05-23T08:16:52.083Z,14.70
2023-05-23T08:19:20.864Z,10.93
2023-05-23T08:21:53.231Z,13.97
2023-05-23T08:24:20.846Z,11.75
2023-05-23T08:26:50.207Z,13.38
2023-05-23T08:29:17.056Z,10.52
2023-05-23T08:31:43.843Z,12.02
2023-05-23T08:34:14.357Z,10.73
2023-05-23T08:36:43.191Z,9.38
2023-05-23T08:39:11.744Z,8.30
2023-05-23T08:41:40.231Z,9.75
2023-05-23T08:44:09.220Z,9.93
2023-05-23T08:46:44.993Z,9.33
2023-05-23T08:49:14.480Z,9.23
2023-05-23T08:51:43.743Z,10.05
2023-05-23T08:54:13.406Z,11.80
2023-05-23T08:56:41.335Z,9.43
2023-05-23T08:59:10.530Z,13.13
2023-05-23T09:01:39.825Z,10.02
2023-05-23T09:04:07.260Z,9.40
2023-05-23T09:06:35.289Z,8.98
2023-05-23T09:09:02.048Z,7.63
2023-05-23T09:11:30.801Z,9.43
2023-05-23T09:13:57.922Z,6.10
2023-05-23T09:16:24.688Z,11.70
2023-05-23T09:18:51.475Z,7.28
2023-05-23T09:21:18.187Z,10.50
2023-05-23T09:23:44.898Z,7.63
2023-05-23T09:26:13.512Z,7.53
2023-05-23T09:28:42.952Z,6.68
2023-05-23T09:31:10.760Z,7.00
2023-05-23T09:33:43.285Z,11.75
2023-05-23T09:36:10.059Z,5.43
2023-05-23T09:38:41.793Z,7.45
2023-05-23T09:41:09.185Z,7.93
2023-05-23T09:43:37.906Z,7.10
2023-05-23T09:46:09.309Z,8.35
2023-05-23T09:48:36.143Z,6.60
2023-05-23T09:51:06.553Z,7.20
2023-05-23T09:53:33.329Z,7.30
2023-05-23T09:56:02.778Z,8.75
2023-05-23T09:58:32.766Z,8.65
2023-05-23T10:01:03.973Z,5.47
2023-05-23T10:03:35.749Z,7.32
2023-05-23T10:06:10.910Z,10.48
2023-05-23T10:08:41.965Z,7.00
2023-05-23T10:11:14.739Z,7.53
2023-05-23T10:13:46.237Z,6.10
2023-05-23T10:16:23.399Z,8.95
2023-05-23T10:18:57.738Z,5.88
2023-05-23T10:21:32.303Z,9.13
2023-05-23T10:24:01.281Z,8.57
2023-05-23T10:26:28.633Z,8.03
2023-05-23T10:28:57.478Z,7.45
2023-05-23T10:31:25.168Z,6.80
2023-05-23T10:34:11.930Z,8.85
2023-05-23T10:36:48.922Z,11.68
2023-05-23T10:39:27.922Z,6.70
2023-05-23T10:42:04.979Z,7.63
2023-05-23T10:44:32.208Z,7.13
2023-05-23T10:47:04.256Z,7.25
2023-05-23T10:49:42.298Z,9.60
2023-05-23T10:52:14.259Z,10.40
2023-05-23T10:54:48.734Z,6.18
2023-05-23T10:57:20.910Z,7.55
2023-05-23T10:59:51.196Z,4.97
2023-05-23T11:02:29.074Z,7.20
2023-05-23T11:05:22.286Z,6.20
2023-05-23T11:08:12.056Z,8.73
2023-05-23T11:11:01.535Z,6.53
2023-05-23T11:13:52.810Z,6.57
2023-05-23T11:16:41.878Z,7.65
2023-05-23T11:19:23.212Z,6.23
2023-05-23T11:21:53.522Z,6.20
2023-05-23T11:24:20.423Z,7.65
2023-05-23T11:27:01.321Z,7.18
2023-05-23T11:29:29.162Z,6.53
2023-05-23T11:31:56.821Z,5.53
2023-05-23T11:34:26.419Z,5.70
2023-05-23T11:36:55.841Z,7.88
2023-05-23T11:39:23.196Z,6.15
2023-05-23T11:42:03.127Z,5.53
2023-05-23T11:44:30.341Z,7.60
2023-05-23T11:47:04.581Z,5.75
2023-05-23T11:49:31.955Z,5.68
2023-05-23T11:52:06.622Z,8.55
2023-05-23T11:54:33.704Z,6.35
2023-05-23T11:57:00.538Z,6.43
2023-05-23T11:59:28.584Z,8.23
2023-05-23T12:01:56.251Z,7.32
2023-05-23T12:04:23.371Z,10.13
2023-05-23T12:06:51.653Z,5.75
2023-05-23T12:09:20.791Z,8.47
2023-05-23T12:11:49.258Z,5.38
2023-05-23T12:14:17.490Z,6.68
2023-05-23T12:16:47.744Z,5.70
2023-05-23T12:19:17.396Z,7.03
2023-05-23T12:21:48.736Z,5.30
2023-05-23T12:24:20.399Z,8.57
2023-05-23T12:26:52.527Z,7.50
2023-05-23T12:29:28.309Z,13.63
2023-05-23T12:31:54.983Z,10.35
2023-05-23T12:34:21.928Z,7.87
2023-05-23T12:36:57.224Z,9.50
2023-05-23T12:39:30.331Z,7.13
2023-05-23T12:42:08.928Z,7.97
2023-05-23T12:44:36.619Z,8.52
2023-05-23T12:47:03.975Z,15.50
2023-05-23T12:49:30.702Z,9.88
2023-05-23T12:51:57.380Z,7.05
2023-05-23T12:54:24.000Z,9.80
2023-05-23T12:56:53.003Z,7.57
2023-05-23T12:59:20.018Z,6.30
2023-05-23T13:01:47.250Z,8.57
2023-05-23T13:04:13.954Z,8.30
2023-05-23T13:06:40.598Z,6.38
2023-05-23T13:09:07.354Z,5.95
2023-05-23T13:11:34.093Z,5.60
2023-05-23T13:14:00.811Z,5.50
2023-05-23T13:16:27.561Z,6.25
2023-05-23T13:18:54.325Z,6.60
2023-05-23T13:21:23.673Z,7.60
2023-05-23T13:23:50.900Z,7.30
2023-05-23T13:26:17.634Z,6.20
2023-05-23T13:28:44.432Z,4.93
2023-05-23T13:31:11.595Z,6.22
2023-05-23T13:33:40.766Z,7.80
2023-05-23T13:36:07.757Z,5.50
2023-05-23T13:38:34.413Z,6.18
2023-05-23T13:41:03.190Z,7.10
2023-05-23T13:43:29.864Z,5.32
2023-05-23T13:45:56.588Z,6.55
2023-05-23T13:48:23.275Z,5.93
2023-05-23T13:50:50.091Z,6.63
2023-05-23T13:53:19.395Z,6.47
2023-05-23T13:55:46.640Z,6.32
2023-05-23T13:58:13.492Z,6.55
2023-05-23T14:00:40.562Z,7.37
2023-05-23T14:03:08.908Z,7.13
2023-05-23T14:05:36.725Z,8.02
2023-05-23T14:08:04.671Z,7.20
2023-05-23T14:10:33.350Z,8.45
2023-05-23T14:13:00.296Z,9.67
2023-05-23T14:15:27.255Z,7.65
2023-05-23T14:17:55.843Z,7.88
2023-05-23T14:20:23.263Z,10.18
2023-05-23T14:22:51.168Z,7.00
2023-05-23T14:25:18.503Z,6.40
2023-05-23T14:27:45.205Z,9.75
2023-05-23T14:30:12.208Z,11.65
2023-05-23T14:32:39.721Z,10.85
2023-05-23T14:35:07.469Z,11.65
2023-05-23T14:37:34.244Z,11.43
2023-05-23T14:40:03.617Z,12.07
2023-05-23T14:42:30.767Z,11.35
2023-05-23T14:44:57.434Z,11.70
2023-05-23T14:47:24.210Z,10.85
2023-05-23T14:52:42.150Z,8.45
2023-05-23T14:55:08.981Z,7.75
2023-05-23T14:57:38.670Z,8.27
2023-05-23T15:00:11.812Z,9.27
2023-05-23T15:02:40.802Z,8.97
2023-05-23T15:05:07.843Z,10.55
2023-05-23T15:07:35.336Z,8.32
2023-05-23T15:10:02.963Z,8.30
2023-05-23T15:12:32.408Z,10.55
2023-05-23T15:15:03.693Z,10.07
2023-05-23T15:19:58.312Z,8.18
2023-05-23T15:22:37.825Z,8.57
2023-05-23T15:25:05.902Z,9.93
2023-05-23T15:27:32.679Z,7.53
2023-05-23T15:29:59.375Z,10.00
2023-05-23T15:32:28.404Z,9.25
2023-05-23T15:34:55.149Z,10.95
2023-05-23T15:37:21.811Z,11.73
2023-05-23T15:39:49.476Z,9.40
2023-05-23T15:42:18.483Z,9.15
2023-05-23T15:44:45.305Z,9.75
2023-05-23T15:47:12.012Z,13.95
2023-05-23T15:49:38.711Z,9.10
2023-05-23T15:52:05.701Z,8.30
2023-05-23T15:54:32.485Z,7.97
2023-05-23T15:56:59.180Z,8.05
2023-05-23T15:59:25.942Z,8.88
2023-05-23T16:01:52.687Z,10.75
2023-05-23T16:04:19.567Z,7.37
2023-05-23T16:06:46.275Z,7.63
2023-05-23T16:09:12.954Z,6.38
2023-05-23T16:11:39.651Z,9.05
2023-05-23T16:14:09.095Z,7.13
2023-05-23T16:16:35.818Z,6.57
2023-05-23T16:19:03.676Z,8.57
2023-05-23T16:21:30.913Z,9.75
2023-05-23T16:23:57.544Z,7.97
2023-05-23T16:26:24.296Z,7.57
2023-05-23T16:28:50.969Z,16.93
2023-05-23T16:31:17.840Z,94.55
2023-05-23T16:33:44.969Z,74.82
2023-05-23T16:36:11.689Z,104.40
2023-05-23T16:38:40.380Z,59.35
2023-05-23T16:41:07.061Z,40.70
2023-05-23T16:43:34.962Z,45.67
2023-05-23T16:46:01.679Z,35.70
2023-05-23T16:48:28.755Z,30.05
2023-05-23T16:50:55.580Z,15.43
2023-05-23T16:53:22.397Z,19.57
2023-05-23T16:55:49.481Z,31.48
2023-05-23T16:58:18.638Z,27.02
2023-05-23T17:00:46.817Z,16.60
2023-05-23T17:03:16.072Z,18.48
2023-05-23T17:05:42.962Z,14.67
2023-05-23T17:08:09.877Z,16.08
2023-05-23T17:10:36.849Z,14.60
2023-05-23T17:13:03.624Z,12.20
2023-05-23T17:15:30.719Z,15.32
2023-05-23T17:17:57.525Z,16.43
2023-05-23T17:20:26.940Z,12.75
2023-05-23T17:22:53.863Z,13.30
2023-05-23T17:25:20.959Z,11.38
2023-05-23T17:27:47.693Z,8.75
2023-05-23T17:30:18.428Z,28.93
2023-05-23T17:32:48.386Z,13.60
2023-05-23T17:35:15.270Z,10.07
2023-05-23T17:37:43.765Z,10.05
2023-05-23T17:40:14.173Z,7.95
2023-05-23T17:42:41.371Z,9.93
2023-05-23T17:45:09.758Z,27.45
2023-05-23T17:47:36.900Z,8.18
2023-05-23T17:50:07.553Z,12.77
2023-05-23T17:52:34.996Z,7.82
2023-05-23T17:55:02.119Z,9.17
2023-05-23T17:57:31.140Z,8.27
2023-05-23T17:59:58.287Z,11.18
2023-05-23T18:02:25.128Z,9.52
2023-05-23T18:04:55.196Z,10.20
2023-05-23T18:07:21.993Z,8.20
2023-05-23T18:09:48.714Z,9.40
2023-05-23T18:12:16.585Z,7.78
2023-05-23T18:14:43.748Z,7.78
2023-05-23T18:17:13.083Z,7.20
2023-05-23T18:19:39.976Z,10.27
2023-05-23T18:22:06.935Z,9.85
2023-05-23T18:24:33.587Z,10.85
2023-05-23T18:27:00.844Z,8.50
2023-05-23T18:29:27.548Z,8.93
2023-05-23T18:31:54.182Z,8.63
2023-05-23T18:34:21.731Z,9.88
2023-05-23T18:36:48.494Z,12.00
2023-05-23T18:39:16.461Z,9.48
2023-05-23T18:41:43.159Z,25.30
2023-05-23T18:44:09.804Z,8.03
2023-05-23T18:46:36.576Z,11.43
2023-05-23T18:49:03.509Z,9.48
2023-05-23T18:51:30.367Z,9.25
2023-05-23T18:53:58.528Z,8.50
2023-05-23T18:56:25.188Z,11.07
2023-05-23T18:58:51.999Z,11.57
2023-05-23T19:01:18.838Z,11.38
2023-05-23T19:03:46.112Z,10.75
2023-05-23T19:06:12.973Z,11.60
2023-05-23T19:08:41.577Z,9.80
2023-05-23T19:11:10.672Z,10.52
2023-05-23T19:13:37.388Z,7.65
2023-05-23T19:16:04.400Z,12.43
2023-05-23T19:18:31.771Z,10.07
2023-05-23T19:20:58.486Z,9.87
2023-05-23T19:23:28.122Z,11.77
2023-05-23T19:25:57.281Z,10.43
2023-05-23T19:28:29.231Z,11.07
2023-05-23T19:30:55.939Z,8.93
2023-05-23T19:33:22.817Z,9.20
2023-05-23T19:35:49.481Z,8.35
2023-05-23T19:38:16.270Z,12.45
2023-05-23T19:40:43.127Z,10.10
2023-05-23T19:43:09.995Z,10.30
2023-05-23T19:45:37.312Z,11.20
2023-05-23T19:48:04.130Z,9.20
2023-05-23T19:50:33.772Z,14.82
2023-05-23T19:53:00.498Z,10.00
2023-05-23T19:55:27.580Z,11.57
2023-05-23T19:57:54.226Z,14.87
2023-05-23T20:00:20.928Z,14.45
2023-05-23T20:02:47.761Z,14.70
2023-05-23T20:05:16.795Z,16.88
2023-05-23T20:07:43.402Z,16.52
2023-05-23T20:10:10.675Z,12.37
2023-05-23T20:12:37.553Z,12.02
2023-05-23T20:15:07.734Z,12.43
2023-05-23T20:17:35.702Z,11.32
2023-05-23T20:20:02.747Z,11.93
2023-05-23T20:22:31.977Z,9.93
2023-05-23T20:24:58.609Z,11.05
2023-05-23T20:27:25.350Z,12.10
2023-05-23T20:29:51.988Z,8.82
2023-05-23T20:32:18.929Z,11.13
2023-05-23T20:34:45.612Z,9.17
2023-05-23T20:37:13.738Z,12.50
2023-05-23T20:39:43.959Z,13.30
2023-05-23T20:42:10.617Z,9.73
2023-05-23T20:44:39.744Z,10.32
2023-05-23T20:47:12.212Z,10.07
2023-05-23T20:49:39.754Z,11.73
2023-05-23T20:52:06.532Z,10.18
2023-05-23T20:54:36.665Z,11.00
2023-05-23T20:57:03.873Z,10.18
2023-05-23T20:59:30.606Z,10.60
2023-05-23T21:01:58.305Z,7.55
2023-05-23T21:04:25.864Z,8.60
2023-05-23T21:06:54.709Z,8.77
2023-05-23T21:09:21.347Z,9.35
2023-05-23T21:11:48.130Z,10.47
2023-05-23T21:14:14.853Z,9.98
2023-05-23T21:16:41.676Z,18.00
2023-05-23T21:19:11.116Z,43.78
2023-05-23T21:21:40.038Z,39.60
2023-05-23T21:24:06.818Z,38.27
2023-05-23T21:26:33.456Z,32.42
2023-05-23T21:29:00.145Z,28.75
2023-05-23T21:31:40.145Z,26.58
2023-05-23T21:34:21.691Z,22.83
2023-05-23T21:36:50.483Z,22.10
2023-05-23T21:39:17.091Z,24.17
2023-05-23T21:41:43.749Z,21.63
2023-05-23T21:44:10.375Z,16.40
2023-05-23T21:46:37.356Z,19.60
2023-05-23T21:49:04.194Z,16.40
2023-05-23T21:51:31.212Z,17.48
2023-05-23T21:53:57.921Z,15.57
2023-05-23T21:56:24.554Z,13.10
2023-05-23T21:58:51.187Z,15.32
2023-05-23T22:01:17.896Z,14.17
2023-05-23T22:03:44.827Z,14.63
2023-05-23T22:06:12.105Z,12.07
2023-05-23T22:08:38.823Z,13.60
2023-05-23T22:11:05.568Z,15.65
2023-05-23T22:13:32.228Z,13.20
2023-05-23T22:16:01.339Z,13.07
2023-05-23T22:18:30.604Z,11.93
2023-05-23T22:21:04.953Z,14.27
2023-05-23T22:23:31.932Z,11.70
2023-05-23T22:26:01.134Z,13.87
2023-05-23T22:28:27.733Z,12.18
2023-05-23T22:30:54.356Z,12.35
2023-05-23T22:33:21.053Z,11.02
2023-05-23T22:35:50.261Z,12.90
2023-05-23T22:38:19.961Z,10.87
2023-05-23T22:40:46.896Z,10.38
2023-05-23T22:43:13.568Z,11.48
2023-05-23T22:45:42.479Z,16.77
2023-05-23T22:48:11.446Z,13.52
2023-05-23T22:50:44.788Z,11.23
2023-05-23T22:53:12.994Z,14.93
2023-05-23T22:55:39.913Z,12.30
2023-05-23T22:58:09.059Z,15.00
2023-05-23T23:00:36.326Z,13.02
2023-05-23T23:03:03.906Z,11.70
2023-05-23T23:05:33.752Z,9.68
2023-05-23T23:08:00.361Z,6.97
2023-05-23T23:10:26.997Z,9.50
2023-05-23T23:12:58.590Z,6.53
2023-05-23T23:15:25.276Z,10.90
2023-05-23T23:17:52.030Z,10.90
2023-05-23T23:20:19.573Z,11.98
2023-05-23T23:22:47.146Z,7.75
2023-05-23T23:25:14.207Z,9.40
2023-05-23T23:27:40.917Z,8.67
2023-05-23T23:30:10.730Z,10.13
2023-05-23T23:32:37.434Z,8.32
2023-05-23T23:35:04.362Z,7.60
2023-05-23T23:37:31.025Z,8.10
2023-05-23T23:39:57.663Z,8.13
2023-05-23T23:42:24.258Z,7.15
2023-05-23T23:44:51.193Z,8.10
2023-05-23T23:47:17.935Z,8.40
2023-05-23T23:49:44.548Z,8.50
2023-05-23T23:52:11.259Z,7.20
2023-05-23T23:54:37.849Z,6.95
2023-05-23T23:57:06.634Z,8.85
2023-05-23T23:59:33.308Z,7.95
